Sovereign — 9HUE9 — position and weather

sailwx.info

Track history (hours):
 
Tides and Currents Weather Stations Pressure Air Temp Water Temp Dewpoint Dewpoint Depression Visibility Wind Speed Wind Dir Waves Ship Positions

Sovereign

Last reported at 2014-Dec-17 19:33 UTC. Time now 2014-Dec-18 04:05 UTC.
Position S 13°14' W 038°34'.

Length 268 m; draft 7.8 m.

Type: Passenger vessel. MMSI: 249539000.

Date/timePositionNaut miles runAvg speedWind from/ knotsBaromVisibWave heightAir tempDewpointWater temp
2014-Dec-17 19:33S 13°14' W 038°34'1515.5
2014-Dec-17 18:33S 12°59' W 038°33'2 1.7
2014-Dec-17 17:33S 12°58' W 038°31'0 0.0
2014-Dec-17 16:33S 12°58' W 038°31'0 0.0
2014-Dec-17 15:33S 12°58' W 038°31'0 0.0
2014-Dec-17 14:33S 12°58' W 038°31'0 0.0
2014-Dec-17 13:33S 12°58' W 038°31'0 0.0
2014-Dec-17 12:33S 12°58' W 038°31'0 0.0
2014-Dec-17 11:33S 12°58' W 038°31'0 0.0
2014-Dec-17 10:33S 12°58' W 038°31'0 0.0
2014-Dec-17 09:33S 12°58' W 038°31'0 0.0
2014-Dec-17 08:33S 12°58' W 038°31'0 0.0
2014-Dec-17 07:33S 12°58' W 038°31'0 0.0
2014-Dec-17 06:33S 12°58' W 038°31'0 0.0
2014-Dec-17 05:33S 12°58' W 038°31'0 0.0
2014-Dec-17 04:33S 12°58' W 038°31'0 0.0
2014-Dec-17 03:33S 12°58' W 038°31'0 0.0
2014-Dec-17 02:33S 12°58' W 038°31'0 0.0
2014-Dec-17 01:33S 12°58' W 038°31'0 0.0
2014-Dec-17 00:33S 12°58' W 038°31'0 0.0
2014-Dec-16 23:33S 12°58' W 038°31'0 0.0
2014-Dec-16 22:33S 12°58' W 038°31'0 0.0
2014-Dec-16 21:33S 12°58' W 038°31'0 0.0
2014-Dec-16 20:33S 12°58' W 038°31'0 0.0
2014-Dec-16 19:33S 12°58' W 038°31'4 3.9
2014-Dec-16 18:33S 13°01' W 038°34'  
2014-Dec-13 21:15S 24°04' W 046°03'1215.2
2014-Dec-13 20:26S 24°04' W 046°17'5 6.2
2014-Dec-13 19:33S 23°59' W 046°17'1 0.8
2014-Dec-13 18:29S 23°58' W 046°18'0 0.0
2014-Dec-13 17:29S 23°58' W 046°18'0 0.0
2014-Dec-13 16:23S 23°58' W 046°18'0 0.0
2014-Dec-13 15:29S 23°58' W 046°18'0 0.0
2014-Dec-13 14:23S 23°58' W 046°18'0 0.0
2014-Dec-13 13:29S 23°58' W 046°18'0 0.0
2014-Dec-13 12:29S 23°58' W 046°18'0 0.0
2014-Dec-13 11:29S 23°58' W 046°18'2 1.7
2014-Dec-13 10:33S 23°59' W 046°18'6 6.2
2014-Dec-13 09:33S 24°04' W 046°14'  
2014-Dec-10 20:30S 13°17' W 038°34'1515.5
2014-Dec-10 19:33S 13°03' W 038°34'6 5.4
2014-Dec-10 18:32S 12°58' W 038°31'0 0.0
2014-Dec-10 17:32S 12°58' W 038°31'0 0.0
2014-Dec-10 16:32S 12°58' W 038°31'0 0.0
2014-Dec-10 15:32S 12°58' W 038°31'0 0.0
2014-Dec-10 14:32S 12°58' W 038°31'0 0.0
2014-Dec-10 13:32S 12°58' W 038°31'0 0.0
2014-Dec-10 12:32S 12°58' W 038°31'0 0.0
2014-Dec-10 11:32S 12°58' W 038°31'0 0.0
2014-Dec-10 10:32S 12°58' W 038°31'0 0.0
2014-Dec-10 09:32S 12°58' W 038°31'0 0.0
2014-Dec-10 08:32S 12°58' W 038°31'0 0.0
2014-Dec-10 07:32S 12°58' W 038°31'0 0.0
2014-Dec-10 06:32S 12°58' W 038°31'0 0.0
2014-Dec-10 05:32S 12°58' W 038°31'0 0.0
2014-Dec-10 04:32S 12°58' W 038°31'0 0.0
2014-Dec-10 03:32S 12°58' W 038°31'0 0.0
2014-Dec-10 02:32S 12°58' W 038°31'0 0.0
2014-Dec-10 01:32S 12°58' W 038°31'0 0.0
2014-Dec-10 00:32S 12°58' W 038°31'0 0.0
2014-Dec-09 23:32S 12°58' W 038°31'0 0.0
2014-Dec-09 22:32S 12°58' W 038°31'0 0.0
2014-Dec-09 21:32S 12°58' W 038°31'0 0.0
2014-Dec-09 20:32S 12°58' W 038°31'0 0.1
2014-Dec-09 19:33S 12°58' W 038°31'8 7.6
2014-Dec-09 18:34S 13°05' W 038°34'  
Track history (hours):
 
Tides and Currents Weather Stations Pressure Air Temp Water Temp Dewpoint Dewpoint Depression Visibility Wind Speed Wind Dir Waves Ship Positions

Sovereign

Last reported at 2014-Dec-17 19:33 UTC. Time now 2014-Dec-18 04:05 UTC.
Position S 13°14' W 038°34'.

Length 268 m; draft 7.8 m.

Type: Passenger vessel. MMSI: 249539000.

Date/timePositionNaut miles runAvg speedWind from/ knotsBaromVisibWave heightAir tempDewpointWater temp
2014-Dec-17 19:33S 13°14' W 038°34'1515.5
2014-Dec-17 18:33S 12°59' W 038°33'2 1.7
2014-Dec-17 17:33S 12°58' W 038°31'0 0.0
2014-Dec-17 16:33S 12°58' W 038°31'0 0.0
2014-Dec-17 15:33S 12°58' W 038°31'0 0.0
2014-Dec-17 14:33S 12°58' W 038°31'0 0.0
2014-Dec-17 13:33S 12°58' W 038°31'0 0.0
2014-Dec-17 12:33S 12°58' W 038°31'0 0.0
2014-Dec-17 11:33S 12°58' W 038°31'0 0.0
2014-Dec-17 10:33S 12°58' W 038°31'0 0.0
2014-Dec-17 09:33S 12°58' W 038°31'0 0.0
2014-Dec-17 08:33S 12°58' W 038°31'0 0.0
2014-Dec-17 07:33S 12°58' W 038°31'0 0.0
2014-Dec-17 06:33S 12°58' W 038°31'0 0.0
2014-Dec-17 05:33S 12°58' W 038°31'0 0.0
2014-Dec-17 04:33S 12°58' W 038°31'0 0.0
2014-Dec-17 03:33S 12°58' W 038°31'0 0.0
2014-Dec-17 02:33S 12°58' W 038°31'0 0.0
2014-Dec-17 01:33S 12°58' W 038°31'0 0.0
2014-Dec-17 00:33S 12°58' W 038°31'0 0.0
2014-Dec-16 23:33S 12°58' W 038°31'0 0.0
2014-Dec-16 22:33S 12°58' W 038°31'0 0.0
2014-Dec-16 21:33S 12°58' W 038°31'0 0.0
2014-Dec-16 20:33S 12°58' W 038°31'0 0.0
2014-Dec-16 19:33S 12°58' W 038°31'4 3.9
2014-Dec-16 18:33S 13°01' W 038°34'  
2014-Dec-13 21:15S 24°04' W 046°03'1215.2
2014-Dec-13 20:26S 24°04' W 046°17'5 6.2
2014-Dec-13 19:33S 23°59' W 046°17'1 0.8
2014-Dec-13 18:29S 23°58' W 046°18'0 0.0
2014-Dec-13 17:29S 23°58' W 046°18'0 0.0
2014-Dec-13 16:23S 23°58' W 046°18'0 0.0
2014-Dec-13 15:29S 23°58' W 046°18'0 0.0
2014-Dec-13 14:23S 23°58' W 046°18'0 0.0
2014-Dec-13 13:29S 23°58' W 046°18'0 0.0
2014-Dec-13 12:29S 23°58' W 046°18'0 0.0
2014-Dec-13 11:29S 23°58' W 046°18'2 1.7
2014-Dec-13 10:33S 23°59' W 046°18'6 6.2
2014-Dec-13 09:33S 24°04' W 046°14'  
2014-Dec-10 20:30S 13°17' W 038°34'1515.5
2014-Dec-10 19:33S 13°03' W 038°34'6 5.4
2014-Dec-10 18:32S 12°58' W 038°31'0 0.0
2014-Dec-10 17:32S 12°58' W 038°31'0 0.0
2014-Dec-10 16:32S 12°58' W 038°31'0 0.0
2014-Dec-10 15:32S 12°58' W 038°31'0 0.0
2014-Dec-10 14:32S 12°58' W 038°31'0 0.0
2014-Dec-10 13:32S 12°58' W 038°31'0 0.0
2014-Dec-10 12:32S 12°58' W 038°31'0 0.0
2014-Dec-10 11:32S 12°58' W 038°31'0 0.0
2014-Dec-10 10:32S 12°58' W 038°31'0 0.0
2014-Dec-10 09:32S 12°58' W 038°31'0 0.0
2014-Dec-10 08:32S 12°58' W 038°31'0 0.0
2014-Dec-10 07:32S 12°58' W 038°31'0 0.0
2014-Dec-10 06:32S 12°58' W 038°31'0 0.0
2014-Dec-10 05:32S 12°58' W 038°31'0 0.0
2014-Dec-10 04:32S 12°58' W 038°31'0 0.0
2014-Dec-10 03:32S 12°58' W 038°31'0 0.0
2014-Dec-10 02:32S 12°58' W 038°31'0 0.0
2014-Dec-10 01:32S 12°58' W 038°31'0 0.0
2014-Dec-10 00:32S 12°58' W 038°31'0 0.0
2014-Dec-09 23:32S 12°58' W 038°31'0 0.0
2014-Dec-09 22:32S 12°58' W 038°31'0 0.0
2014-Dec-09 21:32S 12°58' W 038°31'0 0.0
2014-Dec-09 20:32S 12°58' W 038°31'0 0.1
2014-Dec-09 19:33S 12°58' W 038°31'8 7.6
2014-Dec-09 18:34S 13°05' W 038°34'  

Dump ship's entire track history